Terminal Aerodrome Forecast
Issued by NWS Portland, ME

Home | Current Version | Previous Version | Text Only | Print | Product List | Glossary On
Versions: 1 2 3 4 5 6 7 8 9 10 11 12 13 14 15
059
FTUS41 KGYX 270524
TAFCON
TAF
KCON 270524Z 2706/2806 16005KT P6SM OVC045
     FM270800 17004KT P6SM -SHRA BKN025
     FM271000 18003KT 5SM -SHRA BR BKN015
     FM271500 31003KT P6SM SCT025 BKN050
     FM271700 VRB03KT P6SM SCT050=

USA.gov is the U.S. government's official web portal to all federal, state and local government web resources and services.